Time;durP1;ratioP1;P1;durP2;ratioP2;P2;SDS_P1;SDS_P2;PMS_P1;PMS_P2;Temp;Humidity;BMP_temperature;BMP_pressure;BME280_temperature;BME280_humidity;BME280_pressure;Samples;Min_cycle;Max_cycle;Signal;HPM_P1;HPM_P2
2022/05/24 00:02:06;;;;;;;;;4.60;4.60;;;;;21.53;35.50;98684.88;5111447;28;8849;-74
2022/05/24 00:04:35;;;;;;;;;6.00;5.00;;;;;21.46;35.64;98681.75;5107798;28;8851;-75
2022/05/24 00:07:04;;;;;;;;;3.00;3.00;;;;;21.47;35.39;98686.09;5091283;28;8835;-74
2022/05/24 00:09:32;;;;;;;;;4.00;4.00;;;;;21.39;35.33;98691.84;5073746;28;8972;-77
2022/05/24 00:12:01;;;;;;;;;6.80;4.60;;;;;21.36;35.26;98696.47;5090878;28;8840;-73
2022/05/24 00:17:18;;;;;;;;;5.80;5.20;;;;;21.44;34.76;98704.88;5091487;28;8903;-77
2022/05/24 00:19:47;;;;;;;;;0.40;0.00;;;;;21.48;34.54;98693.13;5090076;28;8831;-76
2022/05/24 00:22:16;;;;;;;;;0.80;0.80;;;;;21.45;34.71;98682.69;5090142;28;8890;-74
2022/05/24 00:24:45;;;;;;;;;4.00;4.00;;;;;21.51;34.89;98689.44;5090234;28;8844;-75
2022/05/24 00:27:15;;;;;;;;;4.20;4.20;;;;;21.61;34.67;98687.97;5091292;28;8863;-76
2022/05/24 00:29:43;;;;;;;;;4.20;4.20;;;;;21.70;34.44;98683.88;5091067;28;8859;-74
2022/05/24 00:32:12;;;;;;;;;3.80;3.80;;;;;21.72;34.24;98684.63;5091185;28;8978;-74
2022/05/24 00:34:42;;;;;;;;;2.80;2.80;;;;;21.68;34.19;98673.38;5067758;28;8859;-77
2022/05/24 00:37:11;;;;;;;;;3.60;3.40;;;;;21.69;33.83;98679.53;5051392;28;8863;-75
2022/05/24 00:39:40;;;;;;;;;3.80;3.80;;;;;21.72;33.72;98688.16;5028919;28;8837;-76
2022/05/24 00:42:13;;;;;;;;;3.80;3.80;;;;;21.77;33.43;98675.47;5087740;28;8837;-74
2022/05/24 00:44:47;;;;;;;;;2.00;2.00;;;;;21.85;33.27;98674.16;5088341;28;9679;-74
2022/05/24 00:47:24;;;;;;;;;4.20;4.20;;;;;21.79;33.30;98662.94;5038811;28;8935;-78
2022/05/24 00:49:59;;;;;;;;;6.20;4.60;;;;;21.78;33.31;98665.72;5071238;28;8896;-75
2022/05/24 00:52:33;;;;;;;;;5.40;5.40;;;;;21.88;33.34;98658.03;5071043;28;8873;-77
2022/05/24 00:55:09;;;;;;;;;5.80;4.80;;;;;21.89;33.21;98652.66;5088050;28;8854;-75
2022/05/24 00:57:46;;;;;;;;;5.00;5.00;;;;;21.98;32.93;98646.78;5087778;28;8857;-75
2022/05/24 01:00:17;;;;;;;;;4.80;4.80;;;;;22.02;33.02;98655.38;5088041;28;8838;-75
2022/05/24 01:02:46;;;;;;;;;5.00;5.00;;;;;22.00;32.26;98646.66;5054427;28;8876;-75
2022/05/24 01:05:20;;;;;;;;;5.00;5.00;;;;;21.96;32.53;98642.50;5086576;28;8926;-78
2022/05/24 01:07:48;;;;;;;;;5.40;4.60;;;;;21.82;32.23;98637.19;5087479;28;8912;-74
2022/05/24 01:10:21;;;;;;;;;5.00;5.00;;;;;21.80;32.23;98637.28;5087599;28;9657;-77
2022/05/24 01:12:57;;;;;;;;;6.80;5.80;;;;;21.88;32.04;98634.16;5096124;28;8853;-73
2022/05/24 01:15:26;;;;;;;;;4.40;3.40;;;;;21.90;31.54;98641.06;5109351;28;8856;-75
2022/05/24 01:17:57;;;;;;;;;3.20;3.20;;;;;21.95;31.35;98627.53;5108751;28;8872;-77
2022/05/24 01:20:28;;;;;;;;;4.00;3.40;;;;;21.83;31.52;98630.91;5109547;27;8844;-74
2022/05/24 01:23:15;;;;;;;;;5.40;5.20;;;;;21.91;31.62;98626.84;5074688;28;8849;-73
2022/05/24 01:25:54;;;;;;;;;7.20;5.40;;;;;21.90;31.56;98632.25;5110347;28;8845;-75
2022/05/24 01:28:29;;;;;;;;;4.80;3.80;;;;;21.93;31.73;98621.47;5110161;28;8865;-74
2022/05/24 01:30:59;;;;;;;;;5.40;4.20;;;;;21.89;31.85;98625.22;5110878;28;8821;-74
2022/05/24 01:36:15;;;;;;;;;4.00;4.00;;;;;21.86;32.04;98630.75;5099995;28;8851;-75
2022/05/24 01:38:48;;;;;;;;;4.80;4.80;;;;;21.79;31.99;98622.28;5089795;28;8851;-76
2022/05/24 01:41:23;;;;;;;;;4.40;4.00;;;;;21.80;32.09;98624.84;5089918;28;8924;-74
2022/05/24 01:43:56;;;;;;;;;5.00;4.60;;;;;21.80;32.21;98619.53;5090468;28;8827;-74
2022/05/24 01:46:31;;;;;;;;;4.80;4.40;;;;;21.91;31.81;98615.38;5088409;28;9593;-74
2022/05/24 01:49:04;;;;;;;;;5.60;4.60;;;;;21.89;32.06;98611.94;5089440;28;8858;-73
2022/05/24 01:51:39;;;;;;;;;2.80;2.80;;;;;21.86;31.80;98601.53;5089809;28;8863;-74
2022/05/24 01:54:09;;;;;;;;;3.60;3.60;;;;;21.74;32.32;98604.00;5089409;28;8987;-77
2022/05/24 01:56:46;;;;;;;;;3.60;3.60;;;;;21.74;32.23;98604.00;5089324;28;8860;-74
2022/05/24 01:59:19;;;;;;;;;5.20;5.00;;;;;21.73;31.92;98612.91;5089307;28;8855;-74
2022/05/24 02:01:51;;;;;;;;;4.20;3.60;;;;;21.68;32.36;98617.66;5090163;28;8852;-75
2022/05/24 02:04:22;;;;;;;;;6.20;5.60;;;;;21.72;32.70;98620.94;5089533;28;8855;-74
2022/05/24 02:07:01;;;;;;;;;6.20;4.40;;;;;21.80;32.42;98619.53;5089601;28;8860;-74
2022/05/24 02:09:35;;;;;;;;;5.40;4.00;;;;;21.80;32.27;98618.72;5088612;28;8975;-74
2022/05/24 02:12:08;;;;;;;;;4.40;4.40;;;;;21.87;32.19;98620.03;5105336;28;8942;-76
2022/05/24 02:14:42;;;;;;;;;4.20;4.00;;;;;21.89;32.04;98620.78;5110145;28;8817;-75
2022/05/24 02:17:16;;;;;;;;;6.20;4.60;;;;;21.84;32.11;98616.72;5057148;28;8879;-75
2022/05/24 02:19:49;;;;;;;;;6.60;5.00;;;;;21.83;32.36;98610.53;5106278;28;8855;-75
2022/05/24 02:22:23;;;;;;;;;4.80;4.80;;;;;21.85;32.23;98608.63;5070257;28;8958;-76
2022/05/24 02:24:57;;;;;;;;;5.60;5.00;;;;;21.82;32.20;98608.00;5087244;28;8892;-75
2022/05/24 02:27:27;;;;;;;;;6.00;5.80;;;;;21.86;31.88;98605.03;5088672;27;8863;-74
2022/05/24 02:29:58;;;;;;;;;7.20;7.20;;;;;21.85;31.85;98605.13;5088902;28;8827;-74
2022/05/24 02:32:26;;;;;;;;;6.00;6.00;;;;;21.85;32.05;98608.63;5088611;28;8998;-75
2022/05/24 02:34:55;;;;;;;;;6.60;6.60;;;;;21.86;31.95;98614.81;5088731;28;8883;-79
2022/05/24 02:37:23;;;;;;;;;8.40;6.40;;;;;21.82;31.96;98608.84;5089141;28;8872;-76
2022/05/24 02:42:38;;;;;;;;;6.20;6.20;;;;;21.77;31.88;98618.88;5087164;28;8857;-75
2022/05/24 02:45:09;;;;;;;;;7.80;7.80;;;;;21.73;31.82;98615.56;5087626;28;8860;-74
2022/05/24 02:47:37;;;;;;;;;7.20;6.80;;;;;21.77;31.73;98616.22;5088577;28;8848;-75
2022/05/24 02:50:09;;;;;;;;;5.80;5.80;;;;;21.77;31.73;98618.88;5088787;28;9639;-74
2022/05/24 02:52:38;;;;;;;;;7.00;7.00;;;;;21.69;31.96;98610.53;5087413;28;8855;-76
2022/05/24 02:55:08;;;;;;;;;5.00;5.00;;;;;21.64;31.43;98612.63;5089180;28;8843;-74
2022/05/24 02:57:37;;;;;;;;;5.00;4.40;;;;;21.67;31.90;98618.59;5088444;28;8828;-76
2022/05/24 03:00:12;;;;;;;;;4.40;4.40;;;;;21.62;31.67;98615.34;5099605;28;9019;-75
2022/05/24 03:02:41;;;;;;;;;4.20;4.20;;;;;21.74;31.66;98616.44;5108878;28;8852;-75
2022/05/24 03:05:12;;;;;;;;;4.20;4.20;;;;;21.61;31.48;98618.97;5073172;28;8848;-75
2022/05/24 03:10:30;;;;;;;;;5.40;5.40;;;;;21.71;31.23;98617.47;5107080;28;8860;-74
2022/05/24 03:15:47;;;;;;;;;3.60;3.60;;;;;21.72;31.49;98607.69;5092495;28;8835;-74
2022/05/24 03:18:18;;;;;;;;;5.60;5.00;;;;;21.66;31.16;98600.09;5086625;28;8871;-75
2022/05/24 03:20:47;;;;;;;;;5.20;5.20;;;;;21.68;31.49;98598.22;5069368;28;8867;-75
2022/05/24 03:23:17;;;;;;;;;6.40;5.40;;;;;21.59;31.42;98586.38;5088180;28;8839;-74
2022/05/24 03:25:46;;;;;;;;;3.80;3.00;;;;;21.61;31.33;98592.44;5087964;28;8878;-74
2022/05/24 03:28:19;;;;;;;;;3.60;3.60;;;;;21.54;30.94;98581.34;5086747;28;8875;-75
2022/05/24 03:30:50;;;;;;;;;3.00;3.00;;;;;21.48;31.12;98572.91;5088146;27;9590;-77
2022/05/24 03:33:19;;;;;;;;;4.80;4.40;;;;;21.42;31.40;98574.13;5108123;28;8857;-77
2022/05/24 03:35:47;;;;;;;;;3.80;3.20;;;;;21.40;31.62;98568.91;5108492;28;9590;-73
2022/05/24 03:38:16;;;;;;;;;3.00;3.00;;;;;21.40;31.66;98576.00;5072718;28;8957;-75
2022/05/24 03:40:44;;;;;;;;;3.80;3.80;;;;;21.36;31.96;98574.47;5074705;28;8907;-74
2022/05/24 03:43:15;;;;;;;;;3.80;3.80;;;;;21.41;32.24;98586.50;5107720;28;9610;-74
2022/05/24 03:45:46;;;;;;;;;5.00;5.00;;;;;21.40;32.34;98591.91;5107756;28;8884;-73
2022/05/24 03:48:18;;;;;;;;;5.00;5.00;;;;;21.43;32.43;98600.53;5087645;28;8828;-75
2022/05/24 03:50:47;;;;;;;;;4.00;4.00;;;;;21.46;32.88;98601.34;5086790;28;8870;-75
2022/05/24 03:53:16;;;;;;;;;4.80;4.80;;;;;21.51;33.09;98600.13;5098105;28;9586;-73
2022/05/24 03:55:45;;;;;;;;;3.40;3.40;;;;;21.49;33.38;98607.28;5123879;27;8845;-76
2022/05/24 03:58:14;;;;;;;;;4.80;4.80;;;;;21.51;33.20;98602.78;5071711;28;8839;-75
2022/05/24 04:00:44;;;;;;;;;5.20;4.20;;;;;21.52;33.55;98609.75;5107280;28;8864;-75
2022/05/24 04:03:14;;;;;;;;;7.20;5.60;;;;;21.51;33.34;98607.19;5106849;28;8858;-75
2022/05/24 04:05:48;;;;;;;;;4.80;4.80;;;;;21.56;33.31;98602.47;5093977;28;8875;-76
2022/05/24 04:08:19;;;;;;;;;9.40;9.40;;;;;21.65;33.29;98601.91;5088843;28;8952;-76
2022/05/24 04:10:48;;;;;;;;;4.60;4.60;;;;;21.66;33.16;98614.22;5106920;28;8868;-73
2022/05/24 04:13:16;;;;;;;;;3.80;3.80;;;;;21.80;33.06;98608.09;5088375;28;8909;-75
2022/05/24 04:15:45;;;;;;;;;6.60;5.00;;;;;21.83;33.03;98607.03;5106532;28;9726;-75
2022/05/24 04:18:13;;;;;;;;;6.80;6.80;;;;;21.92;33.48;98617.09;5106664;28;8870;-76
2022/05/24 04:20:42;;;;;;;;;6.60;5.00;;;;;21.78;33.77;98613.47;5109224;28;8845;-74
2022/05/24 04:23:15;;;;;;;;;5.60;5.00;;;;;21.95;33.91;98622.22;5108489;28;8861;-75
2022/05/24 04:25:43;;;;;;;;;7.20;7.20;;;;;22.03;34.04;98625.22;5087022;28;8829;-74
2022/05/24 04:28:12;;;;;;;;;6.20;6.20;;;;;22.01;34.40;98621.81;5089290;28;8843;-76
2022/05/24 04:30:41;;;;;;;;;6.60;6.00;;;;;22.03;34.86;98621.72;5069662;28;8877;-76
2022/05/24 04:33:10;;;;;;;;;4.80;4.80;;;;;21.85;35.69;98613.09;5072595;28;8926;-75
2022/05/24 04:35:39;;;;;;;;;6.80;5.40;;;;;21.93;35.77;98622.31;5088003;28;8828;-76
2022/05/24 04:38:07;;;;;;;;;6.40;6.40;;;;;21.98;35.46;98616.69;5085112;28;8981;-74
2022/05/24 04:43:24;;;;;;;;;6.40;6.20;;;;;21.97;35.91;98602.56;5036011;28;8992;-78
2022/05/24 04:45:55;;;;;;;;;6.80;6.80;;;;;21.97;36.46;98607.88;5085985;28;8849;-76
2022/05/24 04:48:26;;;;;;;;;7.40;7.20;;;;;22.00;36.56;98607.72;5086063;28;9685;-74
2022/05/24 04:50:56;;;;;;;;;3.20;3.20;;;;;22.08;36.56;98599.25;5035971;28;8876;-74
2022/05/24 04:53:27;;;;;;;;;4.60;4.60;;;;;22.13;36.71;98598.94;5085233;28;8888;-74
2022/05/24 04:55:59;;;;;;;;;6.60;5.60;;;;;22.14;37.19;98606.81;5071780;28;8854;-76
2022/05/24 04:58:27;;;;;;;;;5.00;5.00;;;;;22.09;37.55;98608.91;5086085;28;8882;-76
2022/05/24 05:00:57;;;;;;;;;7.20;7.20;;;;;22.23;37.42;98616.03;5089478;28;9081;-77
2022/05/24 05:03:25;;;;;;;;;6.60;6.60;;;;;22.32;37.52;98609.28;5107083;28;8863;-76
2022/05/24 05:05:54;;;;;;;;;7.80;7.80;;;;;22.37;37.44;98621.31;5086859;28;8904;-75
2022/05/24 05:08:24;;;;;;;;;6.40;6.40;;;;;22.39;37.93;98627.41;5096111;28;8880;-75
2022/05/24 05:10:53;;;;;;;;;6.60;6.60;;;;;22.50;38.07;98631.19;5073822;28;8845;-79
2022/05/24 05:13:23;;;;;;;;;8.00;7.40;;;;;22.58;38.04;98629.72;5087151;28;8898;-74
2022/05/24 05:15:51;;;;;;;;;6.80;6.80;;;;;22.58;38.29;98626.22;5089298;28;8860;-73
2022/05/24 05:18:22;;;;;;;;;7.20;7.20;;;;;22.61;38.35;98630.47;5089552;28;8924;-72
2022/05/24 05:20:51;;;;;;;;;4.60;4.60;;;;;22.56;38.65;98631.63;5089321;28;8860;-73
2022/05/24 05:23:20;;;;;;;;;8.60;7.80;;;;;22.63;38.32;98631.22;5106099;28;8856;-76
2022/05/24 05:25:49;;;;;;;;;7.60;6.80;;;;;22.72;38.27;98639.47;5108092;28;8849;-73
2022/05/24 05:28:19;;;;;;;;;6.60;6.60;;;;;22.77;38.27;98621.41;5109078;28;8878;-76
2022/05/24 05:33:37;;;;;;;;;8.40;8.20;;;;;22.63;39.56;98604.66;5094777;28;9557;-78
2022/05/24 05:36:06;;;;;;;;;8.20;8.20;;;;;22.56;39.95;98614.84;5089622;28;8844;-74
2022/05/24 05:38:34;;;;;;;;;8.60;7.00;;;;;22.52;40.21;98616.00;5091306;28;8916;-76
2022/05/24 05:41:04;;;;;;;;;7.60;7.60;;;;;22.56;40.45;98599.75;5094553;28;9565;-77
2022/05/24 05:43:32;;;;;;;;;5.60;5.60;;;;;22.53;40.78;98621.22;5047499;28;8964;-77
2022/05/24 05:46:09;;;;;;;;;7.80;7.20;;;;;22.52;41.07;98618.66;5113709;28;8845;-77
2022/05/24 05:48:39;;;;;;;;;7.20;7.20;;;;;22.67;40.87;98614.16;5111446;28;8884;-75
2022/05/24 05:51:11;;;;;;;;;9.20;7.80;;;;;22.77;40.95;98621.41;5073721;28;8933;-76
2022/05/24 05:53:40;;;;;;;;;8.00;8.00;;;;;22.82;41.06;98617.59;5074743;28;8853;-74
2022/05/24 05:56:15;;;;;;;;;10.00;8.20;;;;;22.89;41.05;98616.22;5108620;28;8913;-74
2022/05/24 05:58:44;;;;;;;;;9.80;9.80;;;;;22.85;41.51;98614.72;5104916;28;8848;-75
2022/05/24 06:01:19;;;;;;;;;7.20;6.40;;;;;22.89;41.42;98617.09;5088520;28;8836;-77
2022/05/24 06:03:50;;;;;;;;;8.60;8.60;;;;;22.99;41.34;98630.63;5103831;28;8849;-74
2022/05/24 06:06:23;;;;;;;;;7.40;7.40;;;;;23.11;41.31;98631.66;5109452;28;8841;-74
2022/05/24 06:08:52;;;;;;;;;7.20;7.20;;;;;23.20;41.11;98646.16;5109473;28;8930;-75
2022/05/24 06:11:22;;;;;;;;;9.40;9.40;;;;;23.30;40.49;98656.06;5108859;28;8869;-74
2022/05/24 06:13:50;;;;;;;;;6.20;6.20;;;;;23.37;40.41;98656.50;5091635;28;8880;-76
2022/05/24 06:16:20;;;;;;;;;8.60;8.60;;;;;23.61;40.09;98656.66;5053574;28;9618;-73
2022/05/24 06:18:49;;;;;;;;;9.00;9.00;;;;;23.85;39.69;98663.91;5088039;28;8851;-74
2022/05/24 06:21:18;;;;;;;;;10.20;10.20;;;;;24.05;39.28;98663.38;5099034;28;8849;-74
2022/05/24 06:23:47;;;;;;;;;10.00;10.00;;;;;24.26;38.95;98670.81;5103267;28;8860;-73
2022/05/24 06:26:18;;;;;;;;;8.80;8.20;;;;;24.28;39.13;98671.56;5088565;27;8831;-75
2022/05/24 06:28:47;;;;;;;;;8.80;8.80;;;;;24.46;38.82;98670.25;5070327;28;8871;-74
2022/05/24 06:31:16;;;;;;;;;11.20;10.40;;;;;24.66;38.72;98660.81;5091886;28;8844;-73
2022/05/24 06:33:46;;;;;;;;;11.20;11.20;;;;;24.81;38.68;98655.34;5133811;27;8845;-74
2022/05/24 06:36:14;;;;;;;;;10.40;10.20;;;;;25.03;38.10;98660.81;5094056;28;8949;-75
2022/05/24 06:38:44;;;;;;;;;11.00;11.00;;;;;25.24;37.64;98654.84;5079524;28;8952;-73
2022/05/24 06:41:12;;;;;;;;;10.80;10.80;;;;;25.39;37.76;98656.34;5087980;28;8820;-74
2022/05/24 06:43:41;;;;;;;;;8.40;8.40;;;;;25.52;37.50;98664.28;5088285;28;8890;-76
2022/05/24 06:46:10;;;;;;;;;11.20;10.60;;;;;25.62;37.33;98665.28;5088042;28;8873;-74
2022/05/24 06:48:42;;;;;;;;;10.40;10.40;;;;;25.71;37.50;98669.06;5087972;28;8855;-75
2022/05/24 06:51:14;;;;;;;;;8.00;8.00;;;;;25.78;37.62;98658.75;5087947;28;8882;-75
2022/05/24 06:53:46;;;;;;;;;9.20;9.20;;;;;25.87;37.60;98666.03;5088145;28;8843;-74
2022/05/24 06:56:15;;;;;;;;;9.60;9.60;;;;;25.96;37.32;98664.53;5088925;28;8895;-75
2022/05/24 06:58:45;;;;;;;;;13.20;12.00;;;;;26.09;37.65;98675.94;5100051;28;8836;-75
2022/05/24 07:04:02;;;;;;;;;11.40;11.40;;;;;26.38;37.00;98657.56;5089038;28;8879;-75
2022/05/24 07:06:33;;;;;;;;;12.80;12.80;;;;;26.56;36.96;98662.41;5089144;28;9071;-76
2022/05/24 07:09:01;;;;;;;;;11.00;11.00;;;;;26.75;37.07;98665.34;5102073;28;9615;-72
2022/05/24 07:11:30;;;;;;;;;13.00;13.00;;;;;26.87;36.65;98662.63;5088115;28;8859;-74
2022/05/24 07:13:58;;;;;;;;;12.00;11.60;;;;;27.04;36.69;98654.06;5105319;28;8924;-75
2022/05/24 07:16:27;;;;;;;;;11.00;11.00;;;;;27.25;36.49;98663.97;5105385;28;8954;-74
2022/05/24 07:18:56;;;;;;;;;11.00;11.00;;;;;27.41;36.65;98667.06;5072363;28;8847;-76
2022/05/24 07:21:24;;;;;;;;;14.00;13.40;;;;;27.35;36.66;98671.13;5091180;28;8958;-74
2022/05/24 07:23:56;;;;;;;;;11.60;10.80;;;;;27.40;37.14;98676.09;5077255;28;8870;-76
2022/05/24 07:26:25;;;;;;;;;13.00;13.00;;;;;27.29;37.34;98689.53;5105161;28;8889;-76
2022/05/24 07:29:14;;;;;;;;;10.60;10.60;;;;;27.39;36.76;98688.63;5106167;28;8866;-74
2022/05/24 07:31:42;;;;;;;;;10.80;10.80;;;;;27.44;37.01;98687.38;5110178;28;8851;-74
2022/05/24 07:34:11;;;;;;;;;12.60;11.80;;;;;27.54;37.00;98694.53;5077072;28;8863;-74
2022/05/24 07:36:39;;;;;;;;;14.40;12.40;;;;;27.50;36.76;98693.06;5107172;28;8889;-76
2022/05/24 07:39:09;;;;;;;;;11.60;11.20;;;;;27.43;36.42;98686.56;5126335;28;8836;-73
2022/05/24 07:47:31;;;;;;;;;11.40;10.60;;;;;27.09;36.95;98713.41;5109480;28;8867;-75
2022/05/24 07:50:00;;;;;;;;;12.60;12.60;;;;;26.89;37.13;98712.34;5108361;28;8857;-75
2022/05/24 07:52:29;;;;;;;;;9.60;9.60;;;;;26.75;37.01;98699.25;5112877;28;8877;-73
2022/05/24 07:54:59;;;;;;;;;9.60;9.60;;;;;26.78;37.39;98699.84;5112396;28;8841;-75
2022/05/24 07:57:27;;;;;;;;;13.40;11.40;;;;;26.81;37.44;98691.59;5110966;28;8838;-73
2022/05/24 08:00:01;;;;;;;;;12.20;11.20;;;;;26.69;37.47;98689.88;5111758;28;9007;-74
2022/05/24 08:02:39;;;;;;;;;13.00;12.20;;;;;26.67;38.40;98689.16;5074329;28;8863;-74
2022/05/24 08:05:09;;;;;;;;;13.20;11.20;;;;;26.77;38.22;98674.09;5121206;27;8844;-74
2022/05/24 08:07:39;;;;;;;;;9.80;9.80;;;;;26.73;38.15;98680.66;5091132;28;8859;-73
2022/05/24 08:10:09;;;;;;;;;12.60;12.60;;;;;26.62;38.53;98686.88;5090971;28;8878;-74
2022/05/24 08:12:45;;;;;;;;;12.20;11.20;;;;;26.56;38.63;98684.69;5105150;28;9620;-74
2022/05/24 08:15:15;;;;;;;;;5.00;4.40;;;;;26.39;38.69;98691.38;5101416;28;8950;-75
2022/05/24 08:17:43;;;;;;;;;11.00;11.00;;;;;26.15;39.57;98702.19;5103713;28;8959;-76
2022/05/24 08:20:12;;;;;;;;;12.80;11.60;;;;;26.36;39.48;98696.94;5092518;28;8978;-74
2022/05/24 08:22:42;;;;;;;;;10.40;10.40;;;;;26.32;39.69;98702.69;5073381;28;8903;-75
2022/05/24 08:25:14;;;;;;;;;11.00;10.00;;;;;26.18;40.39;98704.63;5104588;28;8860;-74
2022/05/24 08:27:43;;;;;;;;;12.00;12.00;;;;;26.25;39.94;98719.19;5097307;28;8814;-75
2022/05/24 08:30:15;;;;;;;;;15.40;14.40;;;;;26.24;39.87;98716.66;5096122;28;8878;-75
2022/05/24 08:32:44;;;;;;;;;11.80;11.80;;;;;26.35;39.77;98722.00;5097774;28;8944;-76
2022/05/24 08:35:15;;;;;;;;;16.00;15.50;;;;;26.22;39.98;98713.25;5096480;28;8948;-74
2022/05/24 08:37:45;;;;;;;;;15.40;13.60;;;;;26.33;39.75;98712.38;5090551;28;9622;-74
2022/05/24 08:40:17;;;;;;;;;13.00;12.60;;;;;26.47;39.56;98711.31;5098250;28;8928;-78
2022/05/24 08:43:19;;;;;;;;;12.80;11.80;;;;;26.41;38.70;98721.50;5103602;28;8850;-75
2022/05/24 08:48:44;;;;;;;;;11.60;11.20;;;;;26.44;39.10;98710.56;5108093;28;8844;-76
2022/05/24 08:51:21;;;;;;;;;12.80;12.00;;;;;26.37;38.66;98711.16;5107943;28;8847;-77
2022/05/24 08:53:53;;;;;;;;;10.40;10.40;;;;;26.30;38.73;98710.81;5071095;28;8846;-75
2022/05/24 08:56:27;;;;;;;;;11.80;11.80;;;;;26.28;39.27;98699.41;5085876;28;8987;-76
2022/05/24 08:59:01;;;;;;;;;13.40;13.00;;;;;26.29;39.52;98697.56;5107562;28;8897;-70
2022/05/24 09:01:32;;;;;;;;;13.60;13.60;;;;;26.33;39.54;98697.19;5096318;28;8846;-71
2022/05/24 09:04:01;;;;;;;;;11.60;11.20;;;;;26.30;39.50;98692.09;5104494;28;8958;-69
2022/05/24 09:06:43;;;;;;;;;14.40;13.20;;;;;26.43;39.11;98691.97;5107247;28;8866;-69
2022/05/24 09:09:26;;;;;;;;;13.80;13.00;;;;;26.23;39.74;98702.41;5107288;28;9597;-69
2022/05/24 09:12:10;;;;;;;;;8.00;7.80;;;;;26.29;39.67;98693.06;5107780;28;8882;-70
2022/05/24 09:14:48;;;;;;;;;12.40;12.40;;;;;26.35;39.89;98691.72;5099949;28;9671;-71
2022/05/24 09:17:33;;;;;;;;;12.40;11.60;;;;;26.16;39.77;98692.31;5096303;28;8839;-70
2022/05/24 09:20:10;;;;;;;;;12.60;12.60;;;;;26.14;40.27;98681.75;5090458;28;8862;-69
2022/05/24 09:22:39;;;;;;;;;13.80;12.60;;;;;25.99;40.71;98693.66;5096256;28;9051;-71
2022/05/24 09:25:08;;;;;;;;;12.40;12.40;;;;;25.93;40.91;98702.16;5079705;28;8899;-69
2022/05/24 09:27:53;;;;;;;;;12.80;12.40;;;;;26.17;40.99;98704.72;5094661;28;8851;-70
2022/05/24 09:30:26;;;;;;;;;13.80;12.80;;;;;26.36;40.85;98702.28;5090201;28;8836;-71
2022/05/24 09:33:19;;;;;;;;;15.40;14.40;;;;;26.40;40.68;98690.38;5089204;28;8840;-70
2022/05/24 09:35:51;;;;;;;;;12.80;12.00;;;;;26.55;41.29;98693.66;5089298;28;8836;-72
2022/05/24 09:38:22;;;;;;;;;14.40;14.40;;;;;26.76;40.77;98691.09;5100053;28;8853;-72
2022/05/24 09:40:54;;;;;;;;;15.40;15.40;;;;;26.88;40.21;98686.59;5070522;28;8814;-71
2022/05/24 09:43:28;;;;;;;;;20.20;16.00;;;;;26.96;40.42;98691.31;5106094;28;8861;-72
2022/05/24 09:46:03;;;;;;;;;14.80;14.80;;;;;27.01;40.28;98681.06;5054218;28;8901;-69
2022/05/24 09:48:37;;;;;;;;;14.00;14.00;;;;;27.09;40.03;98685.78;5088718;28;8966;-71
2022/05/24 09:51:11;;;;;;;;;17.25;17.00;;;;;27.14;39.82;98683.56;5104234;28;10045;-71
2022/05/24 09:53:50;;;;;;;;;15.40;14.40;;;;;27.28;40.28;98677.97;5106591;28;8853;-72
2022/05/24 09:56:22;;;;;;;;;13.00;13.00;;;;;27.38;39.71;98672.69;5105078;28;8853;-70
2022/05/24 09:58:55;;;;;;;;;16.50;15.50;;;;;27.41;40.18;98684.00;5108716;28;8861;-70
2022/05/24 10:01:37;;;;;;;;;13.60;12.40;;;;;27.44;39.67;98684.72;5108677;28;8875;-69
2022/05/24 10:04:16;;;;;;;;;14.80;12.40;;;;;27.55;39.72;98685.50;5102540;28;8853;-71
2022/05/24 10:06:54;;;;;;;;;14.00;14.00;;;;;27.71;39.65;98682.38;5089545;28;8857;-66
2022/05/24 10:09:47;;;;;;;;;16.20;16.20;;;;;27.77;39.97;98681.84;5108397;28;8817;-70
2022/05/24 10:12:42;;;;;;;;;15.00;14.20;;;;;27.89;39.58;98687.16;5108663;28;8868;-72
2022/05/24 10:15:22;;;;;;;;;18.20;16.60;;;;;28.05;39.38;98676.78;5095716;28;8844;-72
2022/05/24 10:18:11;;;;;;;;;13.60;13.20;;;;;28.15;39.57;98666.97;5101236;28;8895;-72
2022/05/24 10:20:49;;;;;;;;;15.40;15.40;;;;;28.22;39.31;98674.47;5088131;28;8852;-72
2022/05/24 10:23:33;;;;;;;;;16.00;16.00;;;;;28.40;39.14;98678.22;5088177;28;8878;-72
2022/05/24 10:26:16;;;;;;;;;19.75;19.75;;;;;28.55;39.12;98679.56;5088863;28;8853;-71
2022/05/24 10:28:55;;;;;;;;;16.00;16.00;;;;;28.58;39.42;98673.94;5093525;28;8997;-70
2022/05/24 10:31:45;;;;;;;;;17.50;15.75;;;;;28.72;39.35;98666.50;5108074;28;8861;-72
2022/05/24 10:40:23;;;;;;;;;16.00;14.50;;;;;29.09;39.28;98676.56;5107923;28;8885;-73
2022/05/24 10:43:11;;;;;;;;;20.00;19.50;;;;;29.37;39.25;98666.84;5080998;28;8876;-69
2022/05/24 10:45:51;;;;;;;;;20.00;20.00;;;;;29.58;38.74;98668.53;5068809;28;8928;-69
2022/05/24 10:48:33;;;;;;;;;21.00;20.00;;;;;29.72;39.14;98666.25;5086005;28;8963;-70
2022/05/24 10:51:12;;;;;;;;;22.00;21.50;;;;;29.66;39.31;98669.50;5098168;28;8879;-70
2022/05/24 10:53:49;;;;;;;;;21.50;21.50;;;;;29.85;38.48;98663.28;5090469;28;8851;-69
2022/05/24 10:56:29;;;;;;;;;20.00;19.00;;;;;30.13;38.12;98668.69;5088406;28;9022;-70
2022/05/24 10:59:04;;;;;;;;;20.75;20.50;;;;;29.98;37.80;98665.66;5086878;28;8866;-76
2022/05/24 11:01:39;;;;;;;;;21.00;20.50;;;;;30.25;37.82;98662.16;5069895;28;8840;-76
2022/05/24 11:04:17;;;;;;;;;18.50;18.25;;;;;30.49;37.38;98663.47;5105430;28;8848;-76
2022/05/24 11:06:52;;;;;;;;;21.75;20.25;;;;;30.72;37.43;98655.84;5107926;28;9019;-74
2022/05/24 11:09:24;;;;;;;;;19.00;19.00;;;;;30.98;36.93;98658.66;5107676;28;8861;-76
2022/05/24 11:11:59;;;;;;;;;20.00;20.00;;;;;31.21;36.23;98658.19;5105573;28;8828;-76
2022/05/24 11:14:35;;;;;;;;;32.50;28.75;;;;;31.40;36.28;98663.44;5092730;28;8848;-76
2022/05/24 11:17:05;;;;;;;;;26.50;24.75;;;;;31.63;35.60;98661.13;5105113;28;8960;-78
2022/05/24 11:19:38;;;;;;;;;20.50;19.50;;;;;31.91;35.27;98654.72;5086874;28;8879;-77
2022/05/24 11:22:18;;;;;;;;;23.50;23.00;;;;;32.08;34.93;98647.59;5068763;28;8881;-78
2022/05/24 11:24:51;;;;;;;;;22.00;22.00;;;;;32.29;34.60;98641.78;5088434;28;8869;-77
2022/05/24 11:27:28;;;;;;;;;22.75;22.75;;;;;32.46;34.50;98648.97;5109217;28;8893;-70
2022/05/24 11:30:01;;;;;;;;;26.00;25.50;;;;;32.54;33.83;98656.25;5109404;28;8867;-75
2022/05/24 11:32:36;;;;;;;;;26.25;26.25;;;;;32.79;33.62;98644.53;5092098;28;8843;-76
2022/05/24 11:35:10;;;;;;;;;22.50;22.50;;;;;32.76;32.47;98646.69;5110834;28;8832;-77
2022/05/24 11:37:42;;;;;;;;;25.00;24.25;;;;;32.88;32.61;98640.00;5011485;28;9002;-77
2022/05/24 11:40:34;;;;;;;;;26.25;26.25;;;;;32.98;32.85;98639.84;5109865;28;8843;-75
2022/05/24 11:43:04;;;;;;;;;27.00;25.00;;;;;33.21;32.47;98631.94;5092369;28;8859;-75
2022/05/24 11:45:56;;;;;;;;;23.00;22.00;;;;;33.50;32.50;98641.38;5099424;28;9579;-75
2022/05/24 11:48:46;;;;;;;;;20.50;20.50;;;;;33.59;31.40;98638.53;5090928;28;9762;-75
2022/05/24 11:51:38;;;;;;;;;28.25;28.25;;;;;33.88;31.58;98639.03;5091266;28;8851;-76
2022/05/24 11:54:29;;;;;;;;;27.25;27.25;;;;;33.93;30.92;98636.63;5091810;28;8860;-76
2022/05/24 11:57:24;;;;;;;;;22.50;22.50;;;;;34.15;29.66;98629.63;5089112;28;8933;-75
2022/05/24 11:59:53;;;;;;;;;20.75;18.75;;;;;34.45;28.42;98638.84;5091423;28;8986;-75
2022/05/24 12:08:39;;;;;;;;;22.25;22.25;;;;;32.21;32.47;98638.06;5100799;28;8855;-75
2022/05/24 12:11:15;;;;;;;;;23.00;22.00;;;;;32.99;31.44;98630.72;5088812;28;8864;-72
2022/05/24 12:14:10;;;;;;;;;29.00;28.25;;;;;33.63;31.09;98628.22;5106172;28;8990;-74
2022/05/24 12:16:43;;;;;;;;;23.25;22.75;;;;;34.22;29.89;98625.25;5108870;28;8974;-71
2022/05/24 12:19:33;;;;;;;;;22.00;22.00;;;;;34.98;28.63;98619.28;5099448;28;8875;-75
2022/05/24 12:22:06;;;;;;;;;23.50;22.50;;;;;35.80;27.48;98614.00;5101062;28;8863;-72
2022/05/24 12:24:54;;;;;;;;;24.25;24.25;;;;;36.48;27.29;98611.19;5094091;28;8875;-75
2022/05/24 12:27:43;;;;;;;;;19.50;18.50;;;;;37.19;26.75;98603.19;5101822;28;8839;-73
2022/05/24 12:30:39;;;;;;;;;18.25;17.75;;;;;35.72;24.82;98605.97;5075093;28;8839;-73
2022/05/24 12:33:14;;;;;;;;;17.50;16.50;;;;;33.96;26.38;98611.94;5091577;28;8851;-77
2022/05/24 12:35:51;;;;;;;;;23.00;21.75;;;;;32.77;28.53;98611.44;5095802;28;8852;-76
2022/05/24 12:38:25;;;;;;;;;19.50;18.25;;;;;33.10;28.34;98600.69;5110059;28;9602;-76
2022/05/24 12:41:13;;;;;;;;;18.75;18.75;;;;;32.96;28.99;98595.94;5111204;28;8941;-76
2022/05/24 12:44:13;;;;;;;;;24.00;23.75;;;;;34.12;29.04;98597.50;5109735;28;8880;-77
2022/05/24 12:46:51;;;;;;;;;23.75;23.75;;;;;35.04;26.81;98586.84;5067748;28;8878;-76